createdAt,value
2023-02-28T00:01:26.475Z,2.40
2023-02-28T00:03:53.954Z,2.30
2023-02-28T00:06:22.002Z,2.30
2023-02-28T00:08:49.781Z,2.40
2023-02-28T00:11:18.171Z,2.30
2023-02-28T00:13:48.983Z,4.20
2023-02-28T00:16:22.349Z,4.30
2023-02-28T00:18:50.730Z,2.90
2023-02-28T00:21:19.452Z,2.20
2023-02-28T00:23:47.384Z,2.20
2023-02-28T00:28:42.734Z,2.50
2023-02-28T00:31:10.343Z,2.40
2023-02-28T00:33:37.717Z,2.30
2023-02-28T00:36:10.874Z,2.40
2023-02-28T00:38:39.310Z,2.40
2023-02-28T00:41:07.424Z,2.20
2023-02-28T00:43:36.417Z,3.30
2023-02-28T00:46:04.561Z,3.20
2023-02-28T00:50:59.874Z,2.70
2023-02-28T00:53:27.464Z,2.30
2023-02-28T00:55:54.926Z,2.30
2023-02-28T00:58:22.933Z,3.00
2023-02-28T01:00:50.505Z,3.40
2023-02-28T01:03:19.949Z,2.50
2023-02-28T01:05:48.038Z,3.30
2023-02-28T01:08:16.069Z,3.30
2023-02-28T01:10:44.015Z,2.90
2023-02-28T01:13:13.602Z,1.80
2023-02-28T01:15:54.388Z,2.90
2023-02-28T01:18:22.790Z,2.20
2023-02-28T01:20:50.390Z,2.30
2023-02-28T01:23:17.895Z,3.30
2023-02-28T01:25:45.327Z,2.80
2023-02-28T01:28:17.667Z,2.70
2023-02-28T01:30:50.806Z,2.30
2023-02-28T01:33:20.854Z,2.70
2023-02-28T01:35:48.261Z,2.50
2023-02-28T01:38:22.530Z,2.50
2023-02-28T01:40:51.604Z,2.90
2023-02-28T01:43:49.833Z,2.40
2023-02-28T01:46:17.642Z,2.50
2023-02-28T01:48:56.685Z,2.60
2023-02-28T01:51:33.878Z,2.70
2023-02-28T01:54:07.098Z,3.60
2023-02-28T01:56:37.548Z,3.00
2023-02-28T01:59:05.215Z,3.40
2023-02-28T02:01:33.208Z,2.60
2023-02-28T02:04:03.844Z,2.50
2023-02-28T02:06:45.774Z,3.50
2023-02-28T02:09:13.849Z,3.30
2023-02-28T02:11:43.443Z,2.70
2023-02-28T02:14:22.925Z,2.90
2023-02-28T02:17:02.319Z,2.50
2023-02-28T02:20:04.282Z,2.80
2023-02-28T02:22:53.525Z,2.50
2023-02-28T02:25:55.445Z,2.50
2023-02-28T02:28:38.970Z,2.50
2023-02-28T02:31:29.506Z,2.50
2023-02-28T02:34:02.926Z,2.20
2023-02-28T02:37:09.122Z,2.60
2023-02-28T02:40:00.296Z,2.60
2023-02-28T02:42:41.902Z,2.60
2023-02-28T02:45:16.606Z,3.50
2023-02-28T02:47:45.822Z,1.90
2023-02-28T02:50:25.204Z,3.20
2023-02-28T02:52:57.653Z,2.30
2023-02-28T02:55:25.738Z,3.20
2023-02-28T02:58:00.660Z,4.30
2023-02-28T03:00:34.185Z,2.30
2023-02-28T03:05:40.460Z,2.30
2023-02-28T03:08:07.935Z,2.80
2023-02-28T03:10:41.856Z,2.30
2023-02-28T03:13:24.678Z,3.60
2023-02-28T03:16:04.194Z,2.90
2023-02-28T03:18:40.731Z,1.90
2023-02-28T03:21:20.233Z,2.50
2023-02-28T03:24:11.485Z,2.70
2023-02-28T03:26:50.253Z,2.60
2023-02-28T03:29:29.832Z,3.30
2023-02-28T03:32:07.168Z,1.80
2023-02-28T03:34:39.049Z,2.70
2023-02-28T03:37:13.223Z,2.30
2023-02-28T03:39:48.072Z,2.90
2023-02-28T03:42:28.548Z,2.40
2023-02-28T03:45:00.145Z,3.40
2023-02-28T03:47:48.940Z,3.40
2023-02-28T03:50:19.301Z,2.60
2023-02-28T03:52:54.289Z,2.60
2023-02-28T03:55:22.482Z,3.10
2023-02-28T03:58:08.656Z,2.60
2023-02-28T04:00:42.044Z,2.60
2023-02-28T04:03:10.310Z,2.70
2023-02-28T04:05:51.083Z,2.40
2023-02-28T04:08:18.725Z,3.60
2023-02-28T04:10:54.515Z,2.40
2023-02-28T04:13:21.871Z,2.40
2023-02-28T04:15:49.228Z,2.40
2023-02-28T04:18:16.611Z,2.80
2023-02-28T04:20:44.143Z,2.30
2023-02-28T04:23:11.910Z,2.50
2023-02-28T04:25:41.759Z,2.60
2023-02-28T04:28:09.178Z,2.40
2023-02-28T04:30:37.094Z,2.40
2023-02-28T04:33:04.568Z,2.40
2023-02-28T04:35:32.076Z,2.40
2023-02-28T04:37:59.382Z,2.50
2023-02-28T04:40:27.221Z,2.50
2023-02-28T04:42:54.637Z,2.60
2023-02-28T04:47:50.050Z,2.70
2023-02-28T04:50:17.437Z,2.50
2023-02-28T04:52:44.720Z,2.60
2023-02-28T04:55:12.098Z,2.70
2023-02-28T04:57:41.200Z,2.70
2023-02-28T05:00:12.613Z,2.70
2023-02-28T05:02:40.760Z,2.70
2023-02-28T05:05:08.450Z,2.60
2023-02-28T05:10:12.732Z,2.90
2023-02-28T05:15:26.106Z,2.50
2023-02-28T05:17:53.505Z,2.80
2023-02-28T05:20:22.109Z,2.90
2023-02-28T05:25:42.002Z,2.90
2023-02-28T05:28:09.935Z,2.90
2023-02-28T05:35:59.079Z,2.90
2023-02-28T05:38:26.665Z,3.10
2023-02-28T05:40:54.517Z,3.10
2023-02-28T05:43:21.967Z,2.90
2023-02-28T05:45:49.505Z,2.90
2023-02-28T05:53:38.729Z,2.90
2023-02-28T05:56:06.476Z,5.00
2023-02-28T05:58:41.859Z,2.90
2023-02-28T06:01:43.156Z,3.10
2023-02-28T06:22:30.288Z,2.80
2023-02-28T06:41:03.148Z,2.90
2023-02-28T06:43:34.729Z,3.00
2023-02-28T07:00:21.082Z,3.00
2023-02-28T07:02:48.950Z,6.40
2023-02-28T07:17:35.345Z,3.20
2023-02-28T07:20:07.509Z,3.20
2023-02-28T08:01:44.894Z,3.30
2023-02-28T08:04:55.831Z,3.70
2023-02-28T08:26:05.572Z,4.00
2023-02-28T08:31:42.654Z,4.10
2023-02-28T08:35:10.565Z,4.20
2023-02-28T08:38:31.965Z,4.30
2023-02-28T08:41:09.333Z,3.60
2023-02-28T08:49:11.462Z,4.40
2023-02-28T08:59:25.321Z,4.10
2023-02-28T09:02:40.119Z,3.50
2023-02-28T09:05:42.159Z,3.20
2023-02-28T09:08:19.277Z,2.90
2023-02-28T09:10:51.227Z,4.10
2023-02-28T09:13:19.717Z,2.50
2023-02-28T09:15:55.583Z,2.60
2023-02-28T09:19:41.363Z,3.80
2023-02-28T09:22:17.081Z,2.70
2023-02-28T09:24:46.365Z,2.70
2023-02-28T09:27:14.359Z,2.90
2023-02-28T09:29:41.962Z,2.80
2023-02-28T09:32:11.416Z,2.80
2023-02-28T09:34:39.333Z,2.80
2023-02-28T09:40:23.987Z,2.10
2023-02-28T09:42:58.004Z,2.40
2023-02-28T09:45:35.530Z,2.30
2023-02-28T09:54:30.978Z,2.60
2023-02-28T09:57:01.773Z,2.60
2023-02-28T09:59:58.669Z,3.30
2023-02-28T10:02:59.702Z,2.70
2023-02-28T10:05:40.578Z,3.00
2023-02-28T10:08:11.774Z,2.80
2023-02-28T10:10:42.127Z,2.90
2023-02-28T10:13:19.338Z,3.50
2023-02-28T10:18:59.079Z,2.90
2023-02-28T10:21:37.158Z,2.80
2023-02-28T10:24:21.809Z,3.20
2023-02-28T10:26:54.393Z,3.80
2023-02-28T10:30:21.781Z,0.60
2023-02-28T10:32:55.824Z,2.60
2023-02-28T10:36:23.852Z,3.10
2023-02-28T10:38:51.770Z,4.50
2023-02-28T10:48:08.395Z,2.60
2023-02-28T10:51:03.228Z,3.20
2023-02-28T10:56:22.289Z,2.70
2023-02-28T11:04:20.825Z,3.30
2023-02-28T11:06:56.342Z,3.20
2023-02-28T11:09:44.693Z,3.30
2023-02-28T11:12:50.757Z,3.20
2023-02-28T11:15:54.943Z,3.50
2023-02-28T11:18:31.785Z,4.10
2023-02-28T11:21:04.155Z,3.80
2023-02-28T11:24:15.504Z,3.60
2023-02-28T11:26:52.499Z,4.10
2023-02-28T11:30:25.401Z,3.40
2023-02-28T11:32:54.645Z,4.70
2023-02-28T11:35:41.084Z,2.80
2023-02-28T11:44:56.290Z,5.40
2023-02-28T11:47:54.547Z,3.40
2023-02-28T11:51:19.553Z,3.70
2023-02-28T11:56:39.197Z,3.40
2023-02-28T11:59:23.662Z,4.10
2023-02-28T12:02:07.102Z,3.10
2023-02-28T12:05:16.330Z,4.20
2023-02-28T12:08:10.498Z,4.30
2023-02-28T12:11:05.971Z,4.20
2023-02-28T12:13:46.940Z,3.30
2023-02-28T12:16:29.072Z,3.30
2023-02-28T12:19:08.235Z,2.60
2023-02-28T12:21:54.831Z,3.30
2023-02-28T12:24:58.124Z,3.40
2023-02-28T12:27:32.476Z,3.20
2023-02-28T12:30:25.571Z,4.80
2023-02-28T12:33:09.257Z,3.20
2023-02-28T12:35:59.275Z,3.20
2023-02-28T12:38:41.311Z,3.50
2023-02-28T12:41:17.158Z,3.30
2023-02-28T12:44:58.490Z,3.10
2023-02-28T12:50:57.384Z,3.20
2023-02-28T12:56:26.935Z,3.10
2023-02-28T13:02:20.553Z,3.60
2023-02-28T13:07:28.964Z,2.90
2023-02-28T13:09:59.785Z,2.90
2023-02-28T13:12:28.622Z,3.20
2023-02-28T13:15:25.515Z,3.60
2023-02-28T13:17:56.457Z,2.80
2023-02-28T13:20:38.474Z,2.70
2023-02-28T13:23:41.339Z,2.60
2023-02-28T13:34:38.211Z,2.80
2023-02-28T13:37:26.392Z,2.70
2023-02-28T13:42:51.608Z,2.50
2023-02-28T13:45:26.125Z,3.70
2023-02-28T13:48:04.441Z,2.80
2023-02-28T13:57:48.098Z,2.90
2023-02-28T14:07:27.690Z,2.80
2023-02-28T14:10:09.759Z,2.70
2023-02-28T14:16:23.813Z,2.80
2023-02-28T14:18:58.041Z,2.70
2023-02-28T14:21:32.466Z,2.60
2023-02-28T14:24:21.483Z,2.60
2023-02-28T14:27:04.001Z,3.50
2023-02-28T14:32:36.224Z,2.60
2023-02-28T14:35:32.898Z,3.30
2023-02-28T14:38:23.026Z,2.60
2023-02-28T14:46:43.425Z,2.50
2023-02-28T14:49:28.315Z,2.40
2023-02-28T14:54:54.927Z,2.30
2023-02-28T14:57:51.296Z,2.20
2023-02-28T15:00:30.909Z,2.20
2023-02-28T15:03:00.329Z,3.90
2023-02-28T15:19:41.421Z,1.90
2023-02-28T15:25:18.560Z,2.00
2023-02-28T15:33:56.231Z,1.90
2023-02-28T15:42:26.165Z,1.80
2023-02-28T15:47:54.791Z,1.70
2023-02-28T15:50:23.596Z,1.50
2023-02-28T15:58:14.151Z,1.50
2023-02-28T16:00:46.623Z,1.40
2023-02-28T16:03:45.149Z,1.20
2023-02-28T16:06:38.233Z,1.50
2023-02-28T16:36:54.978Z,1.30
2023-02-28T16:44:49.442Z,1.20
2023-02-28T16:55:25.989Z,1.30
2023-02-28T17:06:20.640Z,2.70
2023-02-28T17:08:51.827Z,1.40
2023-02-28T17:27:40.113Z,1.50
2023-02-28T17:38:33.053Z,2.70
2023-02-28T17:41:05.338Z,0.70
2023-02-28T17:54:35.965Z,1.60
2023-02-28T17:57:05.202Z,3.50
2023-02-28T17:59:35.370Z,3.00
2023-02-28T18:02:04.620Z,3.10
2023-02-28T18:04:33.329Z,2.10
2023-02-28T18:07:01.298Z,3.00
2023-02-28T18:09:29.558Z,2.40
2023-02-28T18:11:57.634Z,2.30
2023-02-28T18:14:27.318Z,2.70
2023-02-28T18:16:56.867Z,3.10
2023-02-28T18:19:24.901Z,1.70
2023-02-28T18:21:55.013Z,1.10
2023-02-28T18:24:24.965Z,2.10
2023-02-28T18:26:52.595Z,3.20
2023-02-28T18:29:26.363Z,2.90
2023-02-28T18:31:56.119Z,1.80
2023-02-28T18:34:26.204Z,2.10
2023-02-28T18:36:53.849Z,1.90
2023-02-28T18:39:21.643Z,3.30
2023-02-28T18:41:49.414Z,2.80
2023-02-28T18:44:20.325Z,3.70
2023-02-28T18:46:51.504Z,1.60
2023-02-28T18:49:19.433Z,1.80
2023-02-28T18:51:47.637Z,3.20
2023-02-28T18:54:16.919Z,1.60
2023-02-28T18:56:57.039Z,2.10
2023-02-28T18:59:24.421Z,1.60
2023-02-28T19:01:52.078Z,2.60
2023-02-28T19:04:19.524Z,0.90
2023-02-28T19:06:47.203Z,3.10
2023-02-28T19:09:14.942Z,1.30
2023-02-28T19:11:42.503Z,1.50
2023-02-28T19:14:09.853Z,1.80
2023-02-28T19:16:37.334Z,3.10
2023-02-28T19:19:04.873Z,1.70
2023-02-28T19:21:32.488Z,3.90
2023-02-28T19:24:02.688Z,1.10
2023-02-28T19:26:30.761Z,2.20
2023-02-28T19:28:58.400Z,3.40
2023-02-28T19:31:27.060Z,2.90
2023-02-28T19:33:55.533Z,2.20
2023-02-28T19:36:23.952Z,2.90
2023-02-28T19:38:51.658Z,3.40
2023-02-28T19:41:20.340Z,3.10
2023-02-28T19:43:48.288Z,2.90
2023-02-28T19:46:16.138Z,1.30
2023-02-28T19:48:45.260Z,4.00
2023-02-28T19:51:14.936Z,1.80
2023-02-28T19:53:43.267Z,1.70
2023-02-28T19:56:11.629Z,1.70
2023-02-28T19:58:39.911Z,1.10
2023-02-28T20:01:16.321Z,2.60
2023-02-28T20:03:47.079Z,1.40
2023-02-28T20:06:15.273Z,2.60
2023-02-28T20:08:43.500Z,3.40
2023-02-28T20:11:13.608Z,2.40
2023-02-28T20:13:41.642Z,2.10
2023-02-28T20:16:11.349Z,2.70
2023-02-28T20:18:40.472Z,3.80
2023-02-28T20:21:13.253Z,3.80
2023-02-28T20:23:41.920Z,3.00
2023-02-28T20:26:10.077Z,3.10
2023-02-28T20:28:38.917Z,3.60
2023-02-28T20:31:18.082Z,2.00
2023-02-28T20:33:46.889Z,0.90
2023-02-28T20:36:16.430Z,3.20
2023-02-28T20:38:44.357Z,2.40
2023-02-28T20:41:12.892Z,1.80
2023-02-28T20:43:41.381Z,1.00
2023-02-28T20:46:11.155Z,1.80
2023-02-28T20:48:39.689Z,1.00
2023-02-28T20:51:07.507Z,1.00
2023-02-28T20:53:36.144Z,2.90
2023-02-28T20:56:07.680Z,2.60
2023-02-28T20:58:37.992Z,1.80
2023-02-28T21:01:26.494Z,3.00
2023-02-28T21:03:57.010Z,2.60
2023-02-28T21:06:27.054Z,1.50
2023-02-28T21:08:55.154Z,1.50
2023-02-28T21:11:34.526Z,0.80
2023-02-28T21:14:07.883Z,1.50
2023-02-28T21:16:37.766Z,1.50
2023-02-28T21:19:05.624Z,0.80
2023-02-28T21:21:38.753Z,2.50
2023-02-28T21:24:06.990Z,0.70
2023-02-28T21:26:34.523Z,0.70
2023-02-28T21:29:03.170Z,2.90
2023-02-28T21:31:33.961Z,2.80
2023-02-28T21:34:03.615Z,2.50
2023-02-28T21:36:35.476Z,1.30
2023-02-28T21:39:10.224Z,2.70
2023-02-28T21:41:38.122Z,0.90
2023-02-28T21:44:05.784Z,0.60
2023-02-28T21:46:33.630Z,0.80
2023-02-28T21:49:01.495Z,1.50
2023-02-28T21:51:31.558Z,2.50
2023-02-28T21:54:00.283Z,1.80
2023-02-28T21:56:30.886Z,3.20
2023-02-28T21:59:01.838Z,3.10
2023-02-28T22:01:38.015Z,1.70
2023-02-28T22:04:07.945Z,0.20
2023-02-28T22:06:37.996Z,0.50
2023-02-28T22:09:08.253Z,0.10
2023-02-28T22:11:37.390Z,0.50
2023-02-28T22:14:06.968Z,0.50
2023-02-28T22:16:49.660Z,0.50
2023-02-28T22:19:19.387Z,0.40
2023-02-28T22:21:47.835Z,0.40
2023-02-28T22:24:18.017Z,0.40
2023-02-28T22:26:45.933Z,0.50
2023-02-28T22:29:13.478Z,0.40
2023-02-28T22:31:41.320Z,0.20
2023-02-28T22:34:11.596Z,0.50
2023-02-28T22:36:42.159Z,0.30
2023-02-28T22:39:10.559Z,0.30
2023-02-28T22:41:38.649Z,0.30
2023-02-28T22:44:07.474Z,0.30
2023-02-28T22:46:36.123Z,0.40
2023-02-28T22:49:05.156Z,0.30
2023-02-28T22:51:33.582Z,1.10
2023-02-28T22:54:02.211Z,0.30
2023-02-28T22:56:30.582Z,0.30
2023-02-28T22:59:00.293Z,-0.50
2023-02-28T23:01:31.702Z,0.40
2023-02-28T23:04:00.139Z,0.50
2023-02-28T23:06:42.512Z,0.50
2023-02-28T23:09:18.311Z,0.30
2023-02-28T23:11:48.413Z,0.40
2023-02-28T23:14:17.892Z,0.30
2023-02-28T23:16:51.090Z,0.20
2023-02-28T23:19:22.493Z,0.40
2023-02-28T23:21:51.003Z,0.20
2023-02-28T23:24:21.224Z,0.60
2023-02-28T23:26:50.747Z,0.40
2023-02-28T23:29:19.696Z,0.30
2023-02-28T23:31:47.555Z,0.30
2023-02-28T23:34:17.412Z,0.10
2023-02-28T23:36:47.476Z,0.20
2023-02-28T23:39:17.837Z,0.30
2023-02-28T23:41:46.077Z,0.80
2023-02-28T23:44:19.952Z,0.40
2023-02-28T23:46:50.527Z,-0.10
2023-02-28T23:49:21.707Z,0.20
2023-02-28T23:51:50.699Z,0.30
2023-02-28T23:54:19.122Z,-0.10
2023-02-28T23:56:47.019Z,-0.20
2023-02-28T23:59:14.654Z,0.00
